Time;durP1;ratioP1;P1;durP2;ratioP2;P2;SDS_P1;SDS_P2;PMS_P1;PMS_P2;Temp;Humidity;BMP_temperature;BMP_pressure;BME280_temperature;BME280_humidity;BME280_pressure;Samples;Min_cycle;Max_cycle;Signal;HPM_P1;HPM_P2
2023/10/21 00:01:56;;;;;;;0.73;0.63;;;12.30;99.90;;;;;;5035320;28;20630;-72
2023/10/21 00:04:25;;;;;;;0.60;0.60;;;12.30;99.90;;;;;;5035124;28;20623;-72
2023/10/21 00:06:53;;;;;;;0.50;0.50;;;12.30;99.90;;;;;;5033941;28;20990;-72
2023/10/21 00:09:21;;;;;;;0.50;0.47;;;12.40;99.90;;;;;;5035135;28;21438;-72
2023/10/21 00:11:48;;;;;;;0.63;0.60;;;12.40;99.90;;;;;;5034804;28;20639;-72
2023/10/21 00:14:17;;;;;;;0.70;0.70;;;12.50;99.90;;;;;;5035153;28;20646;-72
2023/10/21 00:16:44;;;;;;;0.53;0.50;;;12.50;99.90;;;;;;5034834;28;20697;-72
2023/10/21 00:19:11;;;;;;;0.77;0.50;;;12.60;99.90;;;;;;5035769;28;21655;-72
2023/10/21 00:21:38;;;;;;;0.43;0.43;;;12.60;99.90;;;;;;5038679;28;20618;-72
2023/10/21 00:24:06;;;;;;;0.60;0.50;;;12.60;99.90;;;;;;5038610;28;20626;-72
2023/10/21 00:26:43;;;;;;;0.60;0.60;;;12.50;99.90;;;;;;5037899;28;21198;-72
2023/10/21 00:29:11;;;;;;;0.70;0.53;;;12.60;99.90;;;;;;5039093;28;21225;-72
2023/10/21 00:31:39;;;;;;;0.87;0.83;;;12.60;99.90;;;;;;5038545;28;20629;-72
2023/10/21 00:34:06;;;;;;;0.97;0.60;;;12.60;99.90;;;;;;5038616;28;20627;-72
2023/10/21 00:36:33;;;;;;;0.80;0.67;;;12.50;99.90;;;;;;5037749;28;20626;-72
2023/10/21 00:39:01;;;;;;;0.47;0.47;;;12.60;99.90;;;;;;5038429;28;20985;-72
2023/10/21 00:41:28;;;;;;;0.50;0.47;;;12.60;99.90;;;;;;5038452;28;20642;-72
2023/10/21 00:43:55;;;;;;;0.90;0.73;;;12.60;99.90;;;;;;5038571;28;20969;-72
2023/10/21 00:46:22;;;;;;;0.67;0.60;;;12.50;99.90;;;;;;5038385;28;21217;-72
2023/10/21 00:48:50;;;;;;;0.57;0.57;;;12.60;99.90;;;;;;5038541;28;20630;-72
2023/10/21 00:51:17;;;;;;;0.50;0.50;;;12.60;99.90;;;;;;5037860;28;20711;-72
2023/10/21 00:53:44;;;;;;;1.00;0.70;;;12.50;99.90;;;;;;5037297;28;20623;-72
2023/10/21 00:56:11;;;;;;;0.50;0.50;;;12.50;99.90;;;;;;5037463;28;20625;-72
2023/10/21 00:58:38;;;;;;;0.60;0.60;;;12.60;99.90;;;;;;5038335;28;20671;-72
2023/10/21 01:01:07;;;;;;;0.30;0.30;;;12.60;99.90;;;;;;5037825;28;20635;-72
2023/10/21 01:03:35;;;;;;;1.27;0.70;;;12.50;99.90;;;;;;5037254;28;20634;-72
2023/10/21 01:06:03;;;;;;;0.67;0.67;;;12.50;99.90;;;;;;5037817;28;21287;-72
2023/10/21 01:08:30;;;;;;;0.47;0.47;;;12.50;99.90;;;;;;5036833;28;22057;-72
2023/10/21 01:10:59;;;;;;;1.63;0.90;;;12.50;99.90;;;;;;5038502;28;20804;-72
2023/10/21 01:13:26;;;;;;;0.40;0.37;;;12.50;99.90;;;;;;5037762;28;21170;-72
2023/10/21 01:15:55;;;;;;;0.47;0.47;;;12.50;99.90;;;;;;5037358;28;20758;-72
2023/10/21 01:18:24;;;;;;;0.60;0.53;;;12.50;99.90;;;;;;5037240;28;21260;-72
2023/10/21 01:20:53;;;;;;;0.93;0.47;;;12.50;99.90;;;;;;5046533;28;20618;-72
2023/10/21 01:23:22;;;;;;;0.40;0.40;;;12.50;99.90;;;;;;5037480;28;20652;-72
2023/10/21 01:25:50;;;;;;;0.77;0.50;;;12.50;99.90;;;;;;5037145;28;20689;-72
2023/10/21 01:28:18;;;;;;;0.77;0.70;;;12.60;99.90;;;;;;5037443;28;20768;-72
2023/10/21 01:30:46;;;;;;;0.50;0.50;;;12.50;99.90;;;;;;5037229;28;20678;-72
2023/10/21 01:33:14;;;;;;;0.60;0.60;;;12.50;99.90;;;;;;5036626;28;20630;-72
2023/10/21 01:35:43;;;;;;;0.30;0.30;;;12.50;99.90;;;;;;5037475;28;21008;-72
2023/10/21 01:38:11;;;;;;;0.47;0.40;;;12.50;99.90;;;;;;5035591;28;20627;-72
2023/10/21 01:40:40;;;;;;;0.60;0.40;;;12.50;99.90;;;;;;5037361;28;20662;-72
2023/10/21 01:43:09;;;;;;;0.63;0.40;;;12.50;99.90;;;;;;5036978;28;20714;-72
2023/10/21 01:45:37;;;;;;;1.10;0.70;;;12.50;99.90;;;;;;5037690;28;21128;-72
2023/10/21 01:48:06;;;;;;;0.60;0.50;;;12.50;99.90;;;;;;5036307;28;20654;-72
2023/10/21 01:50:34;;;;;;;0.57;0.43;;;12.60;99.90;;;;;;5036941;28;21628;-72
2023/10/21 01:53:03;;;;;;;0.40;0.30;;;12.50;99.90;;;;;;5037110;28;21070;-72
2023/10/21 01:55:31;;;;;;;0.40;0.23;;;12.50;99.90;;;;;;5036293;28;21005;-72
2023/10/21 01:58:00;;;;;;;0.40;0.40;;;12.50;99.90;;;;;;5036327;28;20634;-72
2023/10/21 02:00:28;;;;;;;0.60;0.50;;;12.60;99.90;;;;;;5036298;28;20646;-72
2023/10/21 02:02:57;;;;;;;0.50;0.40;;;12.60;99.90;;;;;;5036627;28;20638;-72
2023/10/21 02:05:25;;;;;;;0.40;0.30;;;12.50;99.90;;;;;;5037261;28;21005;-72
2023/10/21 02:07:53;;;;;;;0.40;0.30;;;12.50;99.90;;;;;;5036478;28;20631;-72
2023/10/21 02:10:20;;;;;;;0.50;0.20;;;12.50;99.90;;;;;;5037216;28;20683;-72
2023/10/21 02:12:47;;;;;;;0.30;0.20;;;12.40;99.90;;;;;;5035744;28;20639;-72
2023/10/21 02:15:16;;;;;;;1.20;0.50;;;12.50;99.90;;;;;;5036161;28;20633;-72
2023/10/21 02:17:44;;;;;;;0.40;0.30;;;12.40;99.90;;;;;;5036898;28;20706;-72
2023/10/21 02:20:14;;;;;;;0.50;0.30;;;12.40;99.90;;;;;;5037381;28;20627;-72
2023/10/21 02:22:41;;;;;;;0.30;0.30;;;12.50;99.90;;;;;;5036538;28;20723;-72
2023/10/21 02:25:11;;;;;;;0.40;0.30;;;12.40;99.90;;;;;;5035929;28;20645;-72
2023/10/21 02:27:40;;;;;;;0.40;0.37;;;12.40;99.90;;;;;;5036460;28;20645;-72
2023/10/21 02:30:09;;;;;;;0.53;0.37;;;12.40;99.90;;;;;;5036612;28;20666;-72
2023/10/21 02:32:43;;;;;;;0.70;0.40;;;12.50;99.90;;;;;;5036373;28;20641;-72
2023/10/21 02:35:13;;;;;;;2.93;0.33;;;12.40;99.90;;;;;;5036566;28;20974;-72
2023/10/21 02:37:41;;;;;;;0.40;0.20;;;12.40;99.90;;;;;;5034933;28;22256;-72
2023/10/21 02:40:13;;;;;;;0.70;0.47;;;12.30;99.90;;;;;;5036791;28;21419;-72
2023/10/21 02:42:41;;;;;;;0.63;0.50;;;12.30;99.90;;;;;;5036302;28;21466;-72
2023/10/21 02:45:10;;;;;;;0.30;0.20;;;12.30;99.90;;;;;;5035871;28;20736;-72
2023/10/21 02:47:37;;;;;;;0.50;0.40;;;12.30;99.90;;;;;;5035511;28;21036;-72
2023/10/21 02:50:08;;;;;;;0.50;0.30;;;12.30;99.90;;;;;;5036255;28;20673;-72
2023/10/21 02:52:37;;;;;;;0.50;0.50;;;12.30;99.90;;;;;;5035879;28;21278;-72
2023/10/21 02:55:06;;;;;;;0.50;0.40;;;12.30;99.90;;;;;;5035954;28;20635;-72
2023/10/21 02:57:34;;;;;;;0.30;0.30;;;12.30;99.90;;;;;;5035609;28;21004;-72
2023/10/21 03:00:01;;;;;;;0.57;0.50;;;12.20;99.90;;;;;;5036051;28;21381;-72
2023/10/21 03:02:27;;;;;;;1.50;0.83;;;12.20;99.90;;;;;;5036162;28;21135;-72
2023/10/21 03:04:54;;;;;;;0.47;0.43;;;12.10;99.90;;;;;;5035796;28;20766;-72
2023/10/21 03:07:22;;;;;;;0.50;0.40;;;12.20;99.90;;;;;;5035364;28;20635;-72
2023/10/21 03:09:49;;;;;;;0.30;0.20;;;12.20;99.90;;;;;;5035690;28;20662;-72
2023/10/21 03:12:16;;;;;;;2.53;0.53;;;12.20;99.90;;;;;;5035802;28;20650;-72
2023/10/21 03:14:42;;;;;;;0.40;0.20;;;12.20;99.90;;;;;;5035515;28;20619;-72
2023/10/21 03:17:09;;;;;;;0.53;0.47;;;12.10;99.90;;;;;;5035561;28;20639;-72
2023/10/21 03:19:36;;;;;;;0.40;0.40;;;12.20;99.90;;;;;;5035629;28;21545;-72
2023/10/21 03:22:03;;;;;;;0.40;0.40;;;12.10;99.90;;;;;;5034680;28;20947;-72
2023/10/21 03:24:31;;;;;;;1.40;0.70;;;12.10;99.90;;;;;;5035437;28;20623;-72
2023/10/21 03:26:59;;;;;;;0.50;0.40;;;12.10;99.90;;;;;;5033928;28;20635;-72
2023/10/21 03:29:26;;;;;;;0.40;0.33;;;12.00;99.90;;;;;;5035799;28;20627;-73
2023/10/21 03:31:52;;;;;;;0.47;0.47;;;12.10;99.90;;;;;;5035746;28;21007;-72
2023/10/21 03:34:19;;;;;;;1.80;0.67;;;12.10;99.90;;;;;;5035746;28;20635;-73
2023/10/21 03:36:46;;;;;;;0.30;0.30;;;12.10;99.90;;;;;;5033712;28;20631;-72
2023/10/21 03:39:13;;;;;;;0.40;0.40;;;12.10;99.90;;;;;;5036030;28;20624;-72
2023/10/21 03:41:41;;;;;;;0.63;0.57;;;12.00;99.90;;;;;;5035678;28;20744;-71
2023/10/21 03:44:08;;;;;;;0.80;0.57;;;12.00;99.90;;;;;;5035213;28;20666;-71
2023/10/21 03:46:35;;;;;;;0.30;0.30;;;11.90;99.90;;;;;;5034237;28;21283;-71
2023/10/21 03:49:02;;;;;;;0.60;0.50;;;11.90;99.90;;;;;;5035005;28;21164;-71
2023/10/21 03:51:30;;;;;;;0.40;0.40;;;11.90;99.90;;;;;;5035360;28;21539;-71
2023/10/21 03:53:57;;;;;;;0.70;0.50;;;11.90;99.90;;;;;;5035702;28;21399;-71
2023/10/21 03:56:24;;;;;;;0.77;0.40;;;11.90;99.90;;;;;;5037918;28;20636;-71
2023/10/21 03:58:52;;;;;;;0.30;0.20;;;11.90;99.90;;;;;;5039594;28;20642;-71
2023/10/21 04:01:20;;;;;;;0.40;0.30;;;11.90;99.90;;;;;;5038811;28;21927;-71
2023/10/21 04:03:47;;;;;;;0.50;0.30;;;11.90;99.90;;;;;;5039672;28;20626;-71
2023/10/21 04:06:15;;;;;;;0.40;0.30;;;11.90;99.90;;;;;;5039439;28;20722;-71
2023/10/21 04:08:42;;;;;;;0.40;0.40;;;11.90;99.90;;;;;;5038316;28;20734;-71
2023/10/21 04:11:09;;;;;;;0.40;0.37;;;12.00;99.90;;;;;;5039578;28;20663;-71
2023/10/21 04:13:36;;;;;;;0.60;0.30;;;12.00;99.90;;;;;;5038898;28;20646;-71
2023/10/21 04:16:05;;;;;;;0.40;0.30;;;12.10;99.90;;;;;;5038932;28;20987;-71
2023/10/21 04:18:31;;;;;;;0.40;0.30;;;12.20;99.90;;;;;;5038483;28;20762;-71
2023/10/21 04:20:58;;;;;;;0.40;0.30;;;12.20;99.90;;;;;;5039329;28;20623;-71
2023/10/21 04:23:25;;;;;;;0.50;0.40;;;12.20;99.90;;;;;;5039388;28;20631;-71
2023/10/21 04:25:52;;;;;;;0.50;0.40;;;12.30;99.90;;;;;;5037888;28;20634;-71
2023/10/21 04:28:19;;;;;;;0.37;0.33;;;12.40;99.90;;;;;;5036087;28;20634;-71
2023/10/21 04:30:46;;;;;;;1.13;0.63;;;12.40;99.90;;;;;;5037773;28;20661;-71
2023/10/21 04:33:13;;;;;;;0.37;0.23;;;12.40;99.90;;;;;;5037462;28;20645;-71
2023/10/21 04:35:40;;;;;;;0.30;0.30;;;12.40;99.90;;;;;;5037880;28;20769;-71
2023/10/21 04:38:09;;;;;;;0.40;0.30;;;12.40;99.90;;;;;;5035467;28;20606;-71
2023/10/21 04:40:36;;;;;;;1.57;0.50;;;12.40;99.90;;;;;;5038018;28;20625;-71
2023/10/21 04:43:04;;;;;;;0.30;0.30;;;12.40;99.90;;;;;;5038045;28;20630;-71
2023/10/21 04:45:30;;;;;;;0.50;0.40;;;12.40;99.90;;;;;;5034723;28;20638;-71
2023/10/21 04:47:58;;;;;;;0.40;0.30;;;12.40;99.90;;;;;;5036870;28;20659;-71
2023/10/21 04:50:26;;;;;;;0.93;0.30;;;12.50;99.90;;;;;;5037822;28;20674;-71
2023/10/21 04:52:53;;;;;;;0.50;0.40;;;12.50;99.90;;;;;;5037603;28;20650;-71
2023/10/21 04:55:20;;;;;;;0.50;0.47;;;12.40;99.90;;;;;;5029658;28;20626;-71
2023/10/21 04:57:47;;;;;;;1.57;0.70;;;12.40;99.90;;;;;;5036732;28;20968;-71
2023/10/21 05:00:15;;;;;;;0.30;0.30;;;12.50;99.90;;;;;;5038605;28;20638;-71
2023/10/21 05:02:42;;;;;;;0.60;0.50;;;12.50;99.90;;;;;;5038676;28;20994;-71
2023/10/21 05:05:09;;;;;;;1.27;0.30;;;12.50;99.90;;;;;;5038507;28;20833;-71
2023/10/21 05:07:37;;;;;;;0.30;0.30;;;12.60;99.90;;;;;;5036236;28;20657;-71
2023/10/21 05:10:05;;;;;;;0.40;0.40;;;12.70;99.90;;;;;;5037482;28;20702;-71
2023/10/21 05:12:32;;;;;;;0.47;0.40;;;12.70;99.90;;;;;;5038362;28;20993;-71
2023/10/21 05:14:59;;;;;;;0.30;0.20;;;12.80;99.90;;;;;;5038164;28;20637;-71
2023/10/21 05:17:25;;;;;;;0.40;0.40;;;12.80;99.90;;;;;;5037394;28;20627;-72
2023/10/21 05:19:52;;;;;;;0.43;0.43;;;12.80;99.90;;;;;;5038030;28;20627;-71
2023/10/21 05:22:19;;;;;;;0.37;0.33;;;12.70;99.90;;;;;;5038276;28;20936;-71
2023/10/21 05:24:47;;;;;;;0.40;0.30;;;12.80;99.90;;;;;;5037024;28;21089;-71
2023/10/21 05:27:15;;;;;;;0.70;0.70;;;12.70;99.90;;;;;;5037059;28;20635;-71
2023/10/21 05:29:42;;;;;;;0.70;0.40;;;12.70;99.90;;;;;;5038056;28;20623;-72
2023/10/21 05:32:09;;;;;;;0.40;0.30;;;12.70;99.90;;;;;;5037237;28;20668;-71
2023/10/21 05:34:35;;;;;;;0.90;0.87;;;12.70;99.90;;;;;;5037942;28;20761;-72
2023/10/21 05:37:02;;;;;;;0.50;0.40;;;12.60;99.90;;;;;;5035371;28;20638;-71
2023/10/21 05:39:29;;;;;;;0.40;0.30;;;12.70;99.90;;;;;;5037642;28;20657;-71
2023/10/21 05:41:57;;;;;;;0.60;0.60;;;12.70;99.90;;;;;;5037152;28;20730;-71
2023/10/21 05:44:24;;;;;;;0.40;0.40;;;12.60;99.90;;;;;;5037477;28;20626;-71
2023/10/21 05:46:51;;;;;;;1.00;0.50;;;12.60;99.90;;;;;;5036535;28;20626;-71
2023/10/21 05:49:18;;;;;;;0.70;0.40;;;12.60;99.90;;;;;;5037568;28;20642;-70
2023/10/21 05:51:45;;;;;;;0.30;0.30;;;12.60;99.90;;;;;;5036702;28;20739;-70
2023/10/21 05:54:11;;;;;;;0.40;0.40;;;12.60;99.90;;;;;;5037106;28;20975;-70
2023/10/21 05:56:38;;;;;;;0.40;0.30;;;12.60;99.90;;;;;;5036392;28;20995;-70
2023/10/21 05:59:06;;;;;;;0.43;0.43;;;12.50;99.90;;;;;;5037402;28;20627;-70
2023/10/21 06:01:33;;;;;;;0.40;0.27;;;12.50;99.90;;;;;;5037023;28;20623;-70
2023/10/21 06:04:00;;;;;;;0.80;0.60;;;12.50;99.90;;;;;;5037335;28;20642;-70
2023/10/21 06:06:27;;;;;;;0.60;0.30;;;12.60;99.90;;;;;;5036025;28;20643;-70
2023/10/21 06:08:54;;;;;;;0.30;0.30;;;12.50;99.90;;;;;;5036835;28;20657;-71
2023/10/21 06:11:20;;;;;;;0.93;0.40;;;12.50;99.90;;;;;;5036543;28;20667;-69
2023/10/21 06:13:48;;;;;;;0.50;0.40;;;12.50;99.90;;;;;;5036402;28;20631;-75
2023/10/21 06:16:16;;;;;;;0.47;0.40;;;12.50;99.90;;;;;;5036704;28;20623;-75
2023/10/21 06:18:43;;;;;;;1.30;1.23;;;12.40;99.90;;;;;;5035035;28;21191;-75
2023/10/21 06:21:09;;;;;;;0.93;0.60;;;12.40;99.90;;;;;;5036086;28;20766;-75
2023/10/21 06:23:36;;;;;;;0.63;0.50;;;12.30;99.90;;;;;;5035959;28;21847;-76
2023/10/21 06:26:03;;;;;;;0.70;0.60;;;12.30;99.90;;;;;;5036016;28;20784;-81
2023/10/21 06:28:30;;;;;;;0.60;0.60;;;12.30;99.90;;;;;;5034216;28;21113;-73
2023/10/21 06:30:57;;;;;;;0.57;0.50;;;12.30;99.90;;;;;;5034163;28;20669;-73
2023/10/21 06:33:26;;;;;;;0.80;0.77;;;12.30;99.90;;;;;;5033220;28;21187;-76
2023/10/21 06:35:52;;;;;;;0.43;0.40;;;12.30;99.90;;;;;;5034713;28;20631;-74
2023/10/21 06:38:19;;;;;;;1.53;0.80;;;12.30;99.90;;;;;;5033664;28;20618;-75
2023/10/21 06:40:46;;;;;;;0.47;0.43;;;12.40;99.90;;;;;;5035236;28;21753;-73
2023/10/21 06:43:13;;;;;;;0.73;0.73;;;12.40;99.90;;;;;;5034224;28;22249;-73
2023/10/21 06:45:39;;;;;;;0.43;0.43;;;12.40;99.90;;;;;;5032509;28;20627;-73
2023/10/21 06:48:07;;;;;;;0.87;0.67;;;12.30;99.90;;;;;;5032134;28;20642;-73
2023/10/21 06:50:36;;;;;;;0.63;0.50;;;12.40;99.90;;;;;;5034512;28;20635;-73
2023/10/21 06:53:03;;;;;;;0.80;0.80;;;12.50;99.90;;;;;;5034242;28;20760;-73
2023/10/21 06:55:40;;;;;;;1.50;0.83;;;12.40;99.90;;;;;;5035740;28;20627;-73
2023/10/21 06:58:10;;;;;;;0.60;0.57;;;12.50;99.90;;;;;;5034471;28;20808;-72
2023/10/21 07:00:37;;;;;;;0.50;0.50;;;12.50;99.90;;;;;;5035195;28;21092;-70
2023/10/21 07:03:05;;;;;;;0.57;0.50;;;12.60;99.90;;;;;;5033805;28;20629;-71
2023/10/21 07:05:32;;;;;;;1.03;0.50;;;12.70;99.90;;;;;;5036048;28;20982;-69
2023/10/21 07:08:00;;;;;;;0.73;0.50;;;12.70;99.90;;;;;;5033790;28;20640;-72
2023/10/21 07:10:29;;;;;;;0.67;0.60;;;12.80;99.90;;;;;;5030961;28;20643;-72
2023/10/21 07:12:56;;;;;;;0.30;0.30;;;12.80;99.90;;;;;;5031513;28;20666;-72
2023/10/21 07:15:28;;;;;;;0.73;0.50;;;12.90;99.90;;;;;;5033766;28;21051;-74
2023/10/21 07:17:57;;;;;;;0.80;0.40;;;12.90;99.90;;;;;;5033500;28;21223;-73
2023/10/21 07:20:25;;;;;;;2.30;0.90;;;13.10;99.90;;;;;;5034173;28;20631;-73
2023/10/21 07:22:52;;;;;;;0.50;0.50;;;13.20;99.90;;;;;;5033422;28;20636;-73
2023/10/21 07:25:20;;;;;;;1.17;0.60;;;13.40;99.90;;;;;;5032563;28;21337;-72
2023/10/21 07:27:47;;;;;;;0.37;0.30;;;13.30;99.90;;;;;;5033523;28;20635;-73
2023/10/21 07:30:15;;;;;;;1.00;0.70;;;13.40;99.90;;;;;;5033039;28;20635;-74
2023/10/21 07:32:42;;;;;;;0.50;0.40;;;13.50;99.90;;;;;;5043460;28;20673;-74
2023/10/21 07:35:09;;;;;;;0.70;0.40;;;13.60;99.90;;;;;;5043471;28;20987;-76
2023/10/21 07:37:36;;;;;;;0.30;0.30;;;13.70;99.90;;;;;;5042058;28;20630;-73
2023/10/21 07:40:05;;;;;;;0.73;0.43;;;13.70;99.90;;;;;;5043139;28;20638;-74
2023/10/21 07:42:33;;;;;;;1.43;0.60;;;13.80;99.90;;;;;;5044506;28;20629;-74
2023/10/21 07:45:00;;;;;;;0.77;0.37;;;13.90;99.90;;;;;;5041935;28;20630;-79
2023/10/21 07:47:36;;;;;;;0.50;0.43;;;13.90;99.90;;;;;;5042546;28;20693;-75
2023/10/21 07:50:13;;;;;;;0.40;0.37;;;13.90;99.90;;;;;;5044440;28;20625;-78
2023/10/21 07:52:45;;;;;;;0.40;0.30;;;14.10;99.90;;;;;;5042683;28;20668;-82
2023/10/21 07:55:18;;;;;;;0.87;0.63;;;14.20;99.90;;;;;;5044032;28;21217;-82
2023/10/21 08:00:39;;;;;;;0.50;0.50;;;14.30;99.90;;;;;;5043235;28;20627;-84
2023/10/21 08:03:06;;;;;;;1.17;0.50;;;14.50;99.90;;;;;;5044607;28;21266;-78
2023/10/21 08:05:33;;;;;;;0.40;0.30;;;14.50;99.90;;;;;;5043678;28;21247;-82
2023/10/21 08:08:00;;;;;;;0.40;0.37;;;14.50;99.90;;;;;;5044850;28;20669;-80
2023/10/21 08:10:29;;;;;;;0.30;0.30;;;14.60;99.90;;;;;;5044670;28;20689;-82
2023/10/21 08:13:00;;;;;;;0.77;0.30;;;14.60;99.90;;;;;;5042906;28;20682;-81
2023/10/21 08:15:29;;;;;;;0.40;0.30;;;14.60;99.90;;;;;;5044049;28;20677;-79
2023/10/21 08:17:56;;;;;;;0.40;0.40;;;14.80;99.90;;;;;;5044886;28;20628;-84
2023/10/21 08:20:23;;;;;;;0.60;0.60;;;14.80;99.90;;;;;;5044952;28;20730;-79
2023/10/21 08:22:51;;;;;;;0.40;0.30;;;14.80;99.10;;;;;;5044630;28;20627;-78
2023/10/21 08:25:18;;;;;;;0.73;0.50;;;14.90;99.70;;;;;;5046295;28;21234;-79
2023/10/21 08:27:44;;;;;;;0.70;0.40;;;14.90;99.50;;;;;;5045870;28;20703;-77
2023/10/21 08:30:14;;;;;;;0.30;0.30;;;15.00;98.80;;;;;;5046101;28;20631;-77
2023/10/21 08:32:42;;;;;;;1.43;0.60;;;15.00;97.20;;;;;;5041426;28;20659;-79
2023/10/21 08:35:09;;;;;;;1.13;0.43;;;15.10;97.90;;;;;;5043019;28;20631;-78
2023/10/21 08:37:37;;;;;;;0.70;0.53;;;15.20;98.20;;;;;;5042912;28;20743;-75
2023/10/21 08:40:07;;;;;;;0.73;0.63;;;15.30;98.10;;;;;;5038555;28;21143;-73
2023/10/21 08:42:34;;;;;;;0.40;0.30;;;15.20;97.10;;;;;;5047189;28;20635;-75
2023/10/21 08:45:06;;;;;;;0.77;0.53;;;15.10;96.40;;;;;;5044971;28;20628;-81
2023/10/21 08:47:36;;;;;;;1.40;0.60;;;15.20;97.10;;;;;;5041349;28;20641;-77
2023/10/21 08:50:07;;;;;;;0.50;0.30;;;15.00;98.40;;;;;;5046417;28;20627;-80
2023/10/21 08:52:36;;;;;;;0.60;0.30;;;15.00;98.10;;;;;;5043428;28;20666;-69
2023/10/21 08:55:05;;;;;;;0.30;0.27;;;14.90;97.80;;;;;;5043517;28;21174;-73
2023/10/21 08:57:32;;;;;;;0.80;0.70;;;14.90;97.60;;;;;;5047240;28;21913;-78
2023/10/21 08:59:59;;;;;;;0.50;0.40;;;15.10;98.20;;;;;;5045457;28;21065;-79
2023/10/21 09:02:27;;;;;;;0.60;0.40;;;15.30;97.50;;;;;;5046259;28;20721;-77
2023/10/21 09:04:55;;;;;;;0.50;0.40;;;15.40;96.80;;;;;;5047317;28;20633;-79
2023/10/21 09:07:22;;;;;;;0.53;0.30;;;15.30;96.50;;;;;;5046389;28;20628;-76
2023/10/21 09:09:50;;;;;;;0.40;0.40;;;15.40;96.10;;;;;;5047996;28;20763;-77
2023/10/21 09:12:17;;;;;;;0.30;0.20;;;15.40;96.40;;;;;;5045874;28;20688;-77
2023/10/21 09:14:51;;;;;;;0.43;0.30;;;15.20;96.50;;;;;;5047107;28;21182;-77
2023/10/21 09:17:18;;;;;;;2.00;0.20;;;15.50;96.10;;;;;;5046384;28;20632;-76
2023/10/21 09:19:48;;;;;;;0.87;0.50;;;15.40;96.10;;;;;;5048129;28;20742;-76
2023/10/21 09:22:24;;;;;;;0.40;0.33;;;15.40;95.60;;;;;;5047269;28;20630;-78
2023/10/21 09:24:50;;;;;;;0.40;0.33;;;15.40;95.50;;;;;;5047334;28;20629;-77
2023/10/21 09:27:17;;;;;;;0.50;0.30;;;15.50;96.00;;;;;;5046481;28;20653;-77
2023/10/21 09:29:45;;;;;;;0.50;0.37;;;15.50;96.50;;;;;;5047725;28;20621;-84
2023/10/21 09:32:13;;;;;;;0.50;0.50;;;15.70;96.30;;;;;;5045592;28;20671;-73
2023/10/21 09:34:41;;;;;;;0.50;0.33;;;15.80;95.10;;;;;;5047188;28;21261;-74
2023/10/21 09:37:08;;;;;;;0.60;0.40;;;15.90;96.20;;;;;;5047011;28;20642;-75
2023/10/21 09:39:37;;;;;;;0.47;0.47;;;15.90;96.20;;;;;;5048010;28;20643;-75
2023/10/21 09:42:05;;;;;;;0.50;0.37;;;15.90;95.90;;;;;;5047871;28;20687;-73
2023/10/21 09:44:33;;;;;;;0.40;0.40;;;15.80;95.70;;;;;;5045615;28;20993;-73
2023/10/21 09:47:01;;;;;;;2.67;0.80;;;15.80;94.70;;;;;;5042316;28;20658;-73
2023/10/21 09:49:28;;;;;;;0.50;0.47;;;15.80;95.20;;;;;;5044749;28;20626;-72
2023/10/21 09:52:02;;;;;;;0.83;0.40;;;15.90;94.80;;;;;;5044932;28;21308;-72
2023/10/21 09:54:34;;;;;;;0.40;0.30;;;15.90;94.90;;;;;;5043528;28;20626;-72
2023/10/21 09:57:06;;;;;;;0.90;0.57;;;15.90;94.70;;;;;;5045023;28;20666;-73
2023/10/21 09:59:34;;;;;;;0.80;0.50;;;15.90;95.00;;;;;;5041426;28;20636;-72
2023/10/21 10:02:01;;;;;;;0.43;0.27;;;15.90;94.60;;;;;;5046154;28;20729;-72
2023/10/21 10:04:28;;;;;;;0.40;0.30;;;16.00;93.90;;;;;;5047003;28;20639;-73
2023/10/21 10:06:59;;;;;;;3.40;0.40;;;16.30;93.80;;;;;;5054298;28;20644;-73
2023/10/21 10:09:27;;;;;;;0.80;0.50;;;16.30;93.90;;;;;;5047171;28;20638;-73
2023/10/21 10:11:58;;;;;;;0.40;0.30;;;16.50;94.20;;;;;;5047400;28;20661;-72
2023/10/21 10:14:28;;;;;;;0.60;0.57;;;16.50;92.90;;;;;;5045584;28;20719;-73
2023/10/21 10:16:55;;;;;;;2.33;0.40;;;16.50;92.60;;;;;;5045037;28;20636;-73
2023/10/21 10:19:39;;;;;;;3.30;0.30;;;16.50;92.60;;;;;;5046588;28;20626;-73
2023/10/21 10:22:29;;;;;;;0.60;0.40;;;16.40;91.50;;;;;;5046752;28;20969;-73
2023/10/21 10:24:56;;;;;;;0.40;0.40;;;16.40;92.70;;;;;;5045400;28;20629;-72
2023/10/21 10:27:36;;;;;;;0.60;0.40;;;16.40;91.90;;;;;;5045216;28;20631;-72
2023/10/21 10:30:08;;;;;;;0.40;0.40;;;16.60;91.10;;;;;;5046276;28;20623;-72
2023/10/21 10:32:43;;;;;;;0.73;0.30;;;16.70;91.00;;;;;;5046253;28;20696;-73
2023/10/21 10:35:14;;;;;;;0.53;0.40;;;16.70;91.90;;;;;;5043659;28;20635;-73
2023/10/21 10:37:51;;;;;;;0.63;0.30;;;16.70;91.10;;;;;;5038494;28;20649;-74
2023/10/21 10:40:19;;;;;;;0.70;0.40;;;16.80;92.00;;;;;;5045343;28;20638;-72
2023/10/21 10:42:56;;;;;;;0.57;0.40;;;16.80;92.10;;;;;;5046193;28;20749;-74
2023/10/21 10:45:25;;;;;;;0.50;0.50;;;16.90;92.00;;;;;;5045088;28;21002;-72
2023/10/21 10:47:59;;;;;;;0.60;0.50;;;16.90;92.20;;;;;;5045493;28;21270;-71
2023/10/21 10:50:26;;;;;;;0.40;0.33;;;16.90;91.40;;;;;;5045860;28;20633;-73
2023/10/21 10:52:55;;;;;;;0.60;0.33;;;17.00;91.80;;;;;;5044555;28;21246;-73
2023/10/21 10:55:22;;;;;;;0.63;0.47;;;17.10;90.60;;;;;;5034879;28;20637;-73
2023/10/21 10:57:51;;;;;;;0.50;0.27;;;16.90;89.60;;;;;;5034408;28;20622;-73
2023/10/21 11:00:21;;;;;;;0.60;0.30;;;16.90;90.30;;;;;;5036768;28;20714;-73
2023/10/21 11:02:50;;;;;;;0.33;0.33;;;16.70;87.50;;;;;;5035067;28;20651;-72
2023/10/21 11:05:19;;;;;;;0.53;0.30;;;16.50;88.10;;;;;;5036333;28;20631;-72
2023/10/21 11:07:47;;;;;;;0.93;0.93;;;16.60;89.80;;;;;;5038628;28;20630;-72
2023/10/21 11:10:19;;;;;;;4.97;0.80;;;16.60;87.40;;;;;;5037205;28;20625;-72
2023/10/21 11:12:47;;;;;;;0.30;0.30;;;16.70;87.40;;;;;;5032994;28;21007;-72
2023/10/21 11:15:13;;;;;;;0.50;0.40;;;16.80;89.40;;;;;;5030681;28;20711;-73
2023/10/21 11:17:40;;;;;;;0.60;0.50;;;17.00;89.20;;;;;;5031552;28;20639;-72
2023/10/21 11:20:10;;;;;;;0.30;0.30;;;17.00;86.60;;;;;;5036996;28;20633;-72
2023/10/21 11:22:37;;;;;;;1.03;0.60;;;17.00;87.10;;;;;;5045609;28;20650;-72
2023/10/21 11:25:06;;;;;;;0.37;0.30;;;17.00;87.80;;;;;;5041687;28;20627;-72
2023/10/21 11:27:33;;;;;;;0.50;0.40;;;17.10;85.80;;;;;;5045656;28;20712;-72
2023/10/21 11:30:07;;;;;;;0.60;0.50;;;17.00;84.40;;;;;;5046281;28;20639;-71
2023/10/21 11:32:35;;;;;;;1.30;0.40;;;17.10;85.80;;;;;;5043700;28;20766;-72
2023/10/21 11:35:02;;;;;;;0.77;0.60;;;16.90;87.40;;;;;;5046248;28;20622;-72
2023/10/21 11:37:31;;;;;;;0.87;0.73;;;16.80;87.80;;;;;;5041463;28;20635;-73
2023/10/21 11:39:58;;;;;;;0.70;0.40;;;16.70;86.20;;;;;;5041081;28;20753;-73
2023/10/21 11:42:25;;;;;;;1.03;0.40;;;16.60;86.30;;;;;;5045649;28;20627;-73
2023/10/21 11:44:56;;;;;;;1.27;0.40;;;16.60;87.70;;;;;;5043781;28;20624;-73
2023/10/21 11:47:25;;;;;;;0.50;0.37;;;16.70;85.80;;;;;;5045897;28;20626;-73
2023/10/21 11:49:54;;;;;;;0.43;0.43;;;16.60;87.40;;;;;;5045904;28;20969;-72
2023/10/21 11:52:21;;;;;;;0.80;0.40;;;16.80;83.60;;;;;;5044883;28;20710;-73
2023/10/21 11:55:20;;;;;;;0.67;0.50;;;16.60;83.50;;;;;;5043910;28;20641;-73
2023/10/21 11:58:28;;;;;;;0.83;0.30;;;16.60;85.00;;;;;;5040814;28;20696;-71
2023/10/21 12:07:18;;;;;;;0.50;0.30;;;17.20;83.60;;;;;;5043380;28;21092;-72
2023/10/21 12:30:03;;;;;;;0.80;0.80;;;17.10;82.50;;;;;;5118865;28;21590;-71
2023/10/21 12:38:20;;;;;;;0.57;0.57;;;17.00;82.80;;;;;;5121139;27;20631;-72
2023/10/21 12:40:59;;;;;;;2.10;0.47;;;17.00;83.20;;;;;;5121172;28;20638;-72
2023/10/21 12:43:34;;;;;;;0.53;0.33;;;16.70;84.00;;;;;;5129831;27;20691;-72
2023/10/21 12:46:12;;;;;;;0.97;0.43;;;16.70;84.40;;;;;;5115749;27;20733;-72
2023/10/21 12:48:41;;;;;;;0.93;0.77;;;16.60;84.10;;;;;;5118581;27;20630;-72
2023/10/21 12:51:09;;;;;;;0.90;0.50;;;16.60;85.80;;;;;;5123054;27;20632;-71
2023/10/21 12:53:36;;;;;;;0.60;0.50;;;16.70;84.40;;;;;;5121935;28;20724;-71
2023/10/21 12:56:06;;;;;;;0.30;0.30;;;16.70;82.20;;;;;;5122251;27;20615;-71
2023/10/21 12:58:33;;;;;;;0.30;0.20;;;16.60;83.10;;;;;;5121493;28;20670;-72
2023/10/21 13:01:00;;;;;;;0.50;0.50;;;16.50;84.00;;;;;;5122084;27;20631;-71
2023/10/21 13:03:27;;;;;;;0.40;0.30;;;16.50;83.00;;;;;;5124032;27;20634;-70
2023/10/21 13:05:55;;;;;;;0.40;0.30;;;16.60;82.60;;;;;;5123443;27;20704;-70
2023/10/21 13:08:22;;;;;;;0.53;0.40;;;16.60;83.40;;;;;;5123649;28;20623;-71
2023/10/21 13:10:49;;;;;;;0.50;0.40;;;16.60;84.50;;;;;;5123891;27;20627;-71
2023/10/21 13:13:18;;;;;;;0.50;0.40;;;16.60;83.70;;;;;;5123123;28;20654;-70
2023/10/21 13:15:44;;;;;;;4.00;0.43;;;16.60;83.50;;;;;;5123486;27;20623;-71
2023/10/21 13:18:11;;;;;;;0.60;0.50;;;16.70;85.00;;;;;;5123390;27;20615;-71
2023/10/21 13:20:39;;;;;;;0.67;0.50;;;16.80;83.90;;;;;;5123340;27;20616;-71
2023/10/21 13:23:08;;;;;;;0.50;0.30;;;16.90;83.20;;;;;;5123217;27;20631;-71
2023/10/21 13:25:36;;;;;;;0.30;0.30;;;16.90;83.00;;;;;;5115230;28;20627;-72
2023/10/21 13:28:05;;;;;;;0.70;0.70;;;17.10;83.60;;;;;;5108039;27;20732;-72
2023/10/21 13:30:32;;;;;;;0.70;0.40;;;17.20;83.70;;;;;;5105652;27;20642;-72